Report METAR

 

LJLJ - Ljubljana/Brnik, Slovenia
Distance from station: O 41km
Dati ricevuti: 28/07/2021 08:00
Parz. nuvoloso
Parz. nuvoloso
 Vento da OSO
Vento: OSO 6 km/h
Temperatura: 18°C
P.to Rugiada: 16°C
Umidità: 88%
Barometro: 1016 hPa
Nuvole: Parz. nuvoloso
Visibility: 10 km
Cloud details: Few Clouds 1829 m
Parz. nuvoloso 7620 m
2021/07/28 06:00 LJLJ 280600Z 25003KT 200V280 9999 FEW060 SCT250 18/16 Q1016 NOSIG
LJMB - Maribor, Slovenia
Distance from station: NE 63km
Dati ricevuti: 28/07/2021 08:00
Sereno
Sereno
 Vento da S
Vento: S 15 km/h
Temperatura: 24°C
P.to Rugiada: 15°C
Umidità: 57%
Barometro: 1014 hPa
Summary: Sereno
Visibility: superiore a 10 km
2021/07/28 06:00 LJMB 280600Z 19008KT CAVOK 24/15 Q1014
 
LJPZ - Portoroz, Slovenia
Distance from station: SO 130km
Dati ricevuti: 28/07/2021 08:00
Sereno
Sereno
 Vento da Variabile
Vento: Variabile 4 km/h
Temperatura: 23°C
P.to Rugiada: 18°C
Umidità: 74%
Barometro: 1014 hPa
Summary: Sereno
Visibility: superiore a 10 km
2021/07/28 06:00 LJPZ 280600Z VRB02KT CAVOK 23/18 Q1014
LJCE - Cerklje, Slovenia
Distance from station: ESE 49km
Dati ricevuti: 28/07/2021 08:00
Sereno
Sereno
 Vento da O
Vento: O 7 km/h
Temperatura: 21°C
P.to Rugiada: 17°C
Umidità: 78%
Barometro: 1015 hPa
Nuvole: Sereno
Visibility: 10 km
2021/07/28 06:00 LJCE 280600Z AUTO 28004KT 9999 NCD 21/17 Q1015
 
LDZA - Zagreb/Pleso, Croatia
Distance from station: ESE 96km
Dati ricevuti: 28/07/2021 08:00
Sereno
Sereno
 Vento da SSO
Vento: SSO 6 km/h
Temperatura: 22°C
P.to Rugiada: 19°C
Umidità: 83%
Barometro: 1014 hPa
Summary: Sereno
Visibility: superiore a 10 km
2021/07/28 06:00 LDZA 280600Z 21003KT 170V250 CAVOK 22/19 Q1014 NOSIG
LDRI - Rijeka/Omisalj, Croatia
Distance from station: SSO 109km
Dati ricevuti: 28/07/2021 08:00
Few Clouds
Few Clouds
 Vento da NNE
Vento: NNE 7 km/h
Temperatura: 24°C
P.to Rugiada: 19°C
Umidità: 74%
Barometro: 1015 hPa
Nuvole: Few Clouds
Visibility: 10 km
Cloud details: Few Clouds 1524 m
2021/07/28 06:00 LDRI 280600Z 02004KT 360V070 9999 FEW050 24/19 Q1015
 
LDPL - Pula, Croatia
Distance from station: SSO 164km
Dati ricevuti: 28/07/2021 08:00
Sereno
Sereno
 Vento da E
Vento: E 13 km/h
Temperatura: 26°C
P.to Rugiada: 21°C
Umidità: 74%
Barometro: 1014 hPa
Summary: Sereno
Visibility: superiore a 10 km
2021/07/28 06:00 LDPL 280600Z 10007KT CAVOK 26/21 Q1014 NOSIG
LOWK - Klagenfurt(Civ/M, Austria
Distance from station: NO 76km
Dati ricevuti: 28/07/2021 07:50
Few Clouds
Few Clouds
 Vento da Variabile
Vento: Variabile 4 km/h
Temperatura: 18°C
P.to Rugiada: 16°C
Umidità: 88%
Barometro: 1016 hPa
Nuvole: Few Clouds
Visibility: 10 km
Cloud details: Few Clouds 152 m
2021/07/28 05:50 LOWK 280550Z VRB02KT 9999 FEW005 18/16 Q1016 NOSIG
 
LOWG - Graz (mil/Civ), Austria
Distance from station: NNE 100km
Dati ricevuti: 28/07/2021 07:50
Few Clouds
Few Clouds
 Vento da Variabile
Vento: Variabile 4 km/h
Temperatura: 22°C
P.to Rugiada: 16°C
Umidità: 69%
Barometro: 1014 hPa
Nuvole: Few Clouds
Visibility: 10 km
Cloud details: Few Clouds 1829 m
2021/07/28 05:50 LOWG 280550Z VRB02KT 9999 FEW060 22/16 Q1014 NOSIG
LOAN - Wr.neustadt East, Austria
Distance from station: NNE 212km
Dati ricevuti: 27/07/2021 21:00
DATI Obsoleti
Sereno
Sereno
 Vento da S
Vento: S 9 km/h
Summary: Sereno
Visibility: superiore a 10 km
2021/07/27 19:00 LOAN 271900Z 17005KT CAVOK
 
LIPQ - Ronchi Legionari, Italy
Distance from station: SO 35km
Dati ricevuti: 28/07/2021 07:50
Sereno
Sereno
 Vento da E
Vento: E 7 km/h
Temperatura: 23°C
P.to Rugiada: 18°C
Umidità: 74%
Barometro: 1013 hPa
Nuvole: Sereno
Visibility: 10 km
2021/07/28 05:50 LIPQ 280550Z AUTO 10004KT 9999 NCD 23/18 Q1013
LIVT - Trieste, Italy
Distance from station: OSO 109km
Dati ricevuti: 28/07/2021 07:55
Parz. nuvoloso
Parz. nuvoloso
 Vento da calmo
Vento: Calma
Temperatura: 24°C
P.to Rugiada: 19°C
Umidità: 74%
Barometro: 1013 hPa
Nuvole: Parz. nuvoloso
Visibility: 10 km
Cloud details: Parz. nuvoloso 914 m
2021/07/28 05:55 LIVT 280555Z 00000KT 9999 SCT030 24/19 Q1013 RMK SCT QUK 0 QUL 0 VIS MAR 20 KM VIS MIN 9999
 
LIVO - Tarvisio, Italy
Distance from station: NNO 49km
Dati ricevuti: 28/07/2021 07:55
Few Clouds
Few Clouds
 Vento da calmo
Vento: Calma
Temperatura: 14°C
P.to Rugiada: 13°C
Umidità: 94%
Barometro: 1017 hPa
Nuvole: Few Clouds
Visibility: 10 km
Cloud details: Few Clouds 610 m
2021/07/28 05:55 LIVO 280555Z 00000KT 9999 FEW020 14/13 Q1017 RMK FEW VIS MIN 9999
LIPZ - Venezia/Tessera, Italy
Distance from station: OSO 217km
Dati ricevuti: 28/07/2021 07:50
Sereno
Sereno
 Vento da ENE
Vento: ENE 7 km/h
Temperatura: 21°C
P.to Rugiada: 18°C
Umidità: 83%
Barometro: 1014 hPa
Summary: Sereno
Visibility: superiore a 10 km
2021/07/28 05:50 LIPZ 280550Z 06004KT CAVOK 21/18 Q1014 NOSIG
 
LHSM - Balaton, Hungary
Distance from station: ENE 177km
Dati ricevuti: 28/07/2021 07:45
Sereno
Sereno
 Vento da calmo
Vento: Calma
Temperatura: 21°C
P.to Rugiada: 19°C
Umidità: 88%
Barometro: 1014 hPa
Nuvole: Sereno
Visibility: 8 km
2021/07/28 05:45 LHSM 280545Z AUTO 00000KT 8000 NCD 21/19 Q1014 NOSIG